Time;durP1;ratioP1;P1;durP2;ratioP2;P2;SDS_P1;SDS_P2;PMS_P1;PMS_P2;Temp;Humidity;BMP_temperature;BMP_pressure;BME280_temperature;BME280_humidity;BME280_pressure;Samples;Min_cycle;Max_cycle;Signal;HPM_P1;HPM_P2
2023/09/21 00:01:45;;;;;;;1.63;0.40;;;;;;;17.61;100.00;100434.69;4989706;28;20038;-65
2023/09/21 00:04:10;;;;;;;1.60;0.30;;;;;;;17.59;100.00;100442.78;4990778;28;20495;-65
2023/09/21 00:06:36;;;;;;;1.55;0.30;;;;;;;17.55;100.00;100432.84;4985805;28;20041;-65
2023/09/21 00:09:03;;;;;;;0.88;0.30;;;;;;;17.55;100.00;100425.75;4990816;28;20431;-65
2023/09/21 00:11:30;;;;;;;0.93;0.30;;;;;;;17.53;100.00;100427.75;4989610;28;20031;-65
2023/09/21 00:13:56;;;;;;;1.30;0.32;;;;;;;17.55;100.00;100431.00;4990895;28;20070;-65
2023/09/21 00:16:25;;;;;;;3.28;0.30;;;;;;;17.57;100.00;100418.47;4987901;28;20448;-65
2023/09/21 00:18:50;;;;;;;1.13;0.30;;;;;;;17.55;100.00;100412.56;4988778;28;20058;-65
2023/09/21 00:21:16;;;;;;;0.70;0.30;;;;;;;17.55;100.00;100415.19;4989979;28;20429;-65
2023/09/21 00:23:43;;;;;;;0.77;0.40;;;;;;;17.58;100.00;100400.84;4987096;28;20050;-65
2023/09/21 00:26:10;;;;;;;4.53;0.57;;;;;;;17.59;100.00;100402.47;4988728;28;20065;-65
2023/09/21 00:28:35;;;;;;;4.38;0.40;;;;;;;17.62;100.00;100406.53;4990373;28;20034;-65
2023/09/21 00:31:02;;;;;;;1.73;0.30;;;;;;;17.62;100.00;100409.19;4990776;28;20035;-65
2023/09/21 00:33:29;;;;;;;0.60;0.30;;;;;;;17.62;100.00;100403.91;4989272;28;20035;-65
2023/09/21 00:36:04;;;;;;;1.55;0.60;;;;;;;17.65;100.00;100403.53;4990667;28;20070;-65
2023/09/21 00:38:31;;;;;;;3.97;0.50;;;;;;;17.72;100.00;100407.06;4989413;28;20033;-65
2023/09/21 00:40:58;;;;;;;0.30;0.20;;;;;;;17.68;100.00;100409.25;4989770;28;20026;-65
2023/09/21 00:43:25;;;;;;;0.57;0.20;;;;;;;17.62;100.00;100407.34;4989617;28;20045;-65
2023/09/21 00:45:57;;;;;;;1.30;0.20;;;;;;;17.56;100.00;100406.28;4990823;28;20061;-65
2023/09/21 00:48:26;;;;;;;5.85;0.40;;;;;;;17.56;100.00;100400.22;4992863;28;20026;-65
2023/09/21 00:50:54;;;;;;;1.25;0.40;;;;;;;17.53;100.00;100393.50;4993465;28;20031;-65
2023/09/21 00:53:21;;;;;;;1.33;0.60;;;;;;;17.56;100.00;100397.59;4993307;28;20037;-65
2023/09/21 00:55:57;;;;;;;0.60;0.22;;;;;;;17.55;100.00;100395.94;4993315;28;20038;-65
2023/09/21 00:58:23;;;;;;;0.70;0.30;;;;;;;17.59;100.00;100389.28;4993530;28;20066;-65
2023/09/21 01:00:51;;;;;;;0.90;0.40;;;;;;;17.67;100.00;100391.00;4994093;28;20033;-65
2023/09/21 01:03:17;;;;;;;1.30;0.20;;;;;;;17.64;100.00;100394.00;4993725;28;20034;-65
2023/09/21 01:05:45;;;;;;;1.23;0.35;;;;;;;17.65;100.00;100387.72;4986472;28;20027;-66
2023/09/21 01:08:18;;;;;;;0.50;0.20;;;;;;;17.67;100.00;100391.00;4993773;28;20041;-66
2023/09/21 01:10:49;;;;;;;0.68;0.30;;;;;;;17.68;100.00;100395.28;4988206;28;20125;-66
2023/09/21 01:13:18;;;;;;;1.45;0.25;;;;;;;17.66;100.00;100384.09;4993652;28;20184;-65
2023/09/21 01:15:48;;;;;;;0.70;0.30;;;;;;;17.62;100.00;100383.66;4986694;28;20113;-66
2023/09/21 01:18:16;;;;;;;0.95;0.25;;;;;;;17.55;100.00;100382.78;4994553;28;20037;-66
2023/09/21 01:20:42;;;;;;;3.03;0.50;;;;;;;17.56;100.00;100379.97;4993101;28;20085;-66
2023/09/21 01:23:18;;;;;;;1.15;0.32;;;;;;;17.58;100.00;100377.13;4990967;28;20058;-66
2023/09/21 01:25:52;;;;;;;2.70;0.52;;;;;;;17.56;100.00;100368.59;4992516;28;20110;-66
2023/09/21 01:28:22;;;;;;;1.08;0.30;;;;;;;17.51;100.00;100366.53;4992943;28;20452;-66
2023/09/21 01:30:49;;;;;;;1.42;0.52;;;;;;;17.50;100.00;100364.09;4986411;28;20526;-66
2023/09/21 01:33:17;;;;;;;2.55;0.30;;;;;;;17.47;100.00;100357.44;4993662;28;20057;-66
2023/09/21 01:35:43;;;;;;;1.92;0.63;;;;;;;17.46;100.00;100349.72;4993288;28;20034;-66
2023/09/21 01:38:09;;;;;;;1.08;0.50;;;;;;;17.45;100.00;100345.44;4993600;28;20062;-66
2023/09/21 01:40:36;;;;;;;2.75;0.50;;;;;;;17.43;100.00;100337.75;4991875;28;20068;-66
2023/09/21 01:43:17;;;;;;;1.08;0.38;;;;;;;17.40;100.00;100343.38;4993637;28;20045;-65
2023/09/21 01:45:45;;;;;;;2.88;0.50;;;;;;;17.39;100.00;100341.75;4992123;28;20031;-66
2023/09/21 01:48:14;;;;;;;3.63;0.60;;;;;;;17.40;100.00;100346.03;4989123;28;20041;-66
2023/09/21 01:50:40;;;;;;;2.30;0.50;;;;;;;17.42;100.00;100335.31;4992580;28;20421;-66
2023/09/21 01:53:09;;;;;;;1.08;0.45;;;;;;;17.40;100.00;100332.03;4993527;28;20046;-65
2023/09/21 01:55:35;;;;;;;2.72;0.40;;;;;;;17.39;100.00;100325.97;4991453;28;20419;-66
2023/09/21 01:58:02;;;;;;;1.35;0.30;;;;;;;17.36;100.00;100321.06;4993867;28;20034;-66
2023/09/21 02:00:29;;;;;;;4.38;0.50;;;;;;;17.39;100.00;100314.63;4990490;28;20484;-66
2023/09/21 02:02:55;;;;;;;1.83;0.60;;;;;;;17.40;100.00;100321.50;4991640;28;20045;-65
2023/09/21 02:05:21;;;;;;;0.70;0.30;;;;;;;17.42;100.00;100325.56;4992114;28;20566;-66
2023/09/21 02:07:47;;;;;;;2.25;0.30;;;;;;;17.44;100.00;100323.56;4992567;28;20104;-66
2023/09/21 02:10:17;;;;;;;1.55;0.85;;;;;;;17.48;100.00;100316.09;4989566;28;20109;-66
2023/09/21 02:12:56;;;;;;;2.92;0.82;;;;;;;17.46;100.00;100313.66;4992527;28;20100;-66
2023/09/21 02:15:24;;;;;;;1.25;0.30;;;;;;;17.45;100.00;100304.13;4992155;28;20085;-65
2023/09/21 02:17:52;;;;;;;3.83;0.65;;;;;;;17.42;100.00;100304.50;4994252;28;20064;-66
2023/09/21 02:20:20;;;;;;;1.45;0.32;;;;;;;17.43;100.00;100298.25;4992073;28;20041;-66
2023/09/21 02:22:53;;;;;;;2.38;0.30;;;;;;;17.42;100.00;100288.72;4992497;28;20404;-66
2023/09/21 02:25:20;;;;;;;1.95;0.30;;;;;;;17.42;100.00;100290.53;4991167;28;20034;-67
2023/09/21 02:27:49;;;;;;;1.85;0.50;;;;;;;17.43;100.00;100295.59;4992475;28;20065;-66
2023/09/21 02:30:17;;;;;;;2.88;0.40;;;;;;;17.41;100.00;100289.72;4991105;28;20126;-66
2023/09/21 02:32:44;;;;;;;1.70;0.40;;;;;;;17.43;100.00;100292.16;4987885;28;20040;-67
2023/09/21 02:35:16;;;;;;;1.10;0.35;;;;;;;17.45;100.00;100292.78;4992039;28;20046;-66
2023/09/21 02:37:52;;;;;;;2.63;0.47;;;;;;;17.39;100.00;100283.00;4992143;28;20034;-66
2023/09/21 02:40:19;;;;;;;0.70;0.30;;;;;;;17.40;100.00;100282.81;4990586;28;20373;-67
2023/09/21 02:42:52;;;;;;;2.55;0.30;;;;;;;17.43;100.00;100279.00;4992117;28;20030;-66
2023/09/21 02:45:29;;;;;;;1.85;0.38;;;;;;;17.43;100.00;100277.16;4991326;28;20030;-67
2023/09/21 02:48:00;;;;;;;1.58;0.35;;;;;;;17.46;100.00;100274.16;4992553;28;20042;-66
2023/09/21 02:50:26;;;;;;;1.23;0.45;;;;;;;17.44;100.00;100270.09;4990097;28;20037;-67
2023/09/21 02:52:56;;;;;;;0.88;0.35;;;;;;;17.44;100.00;100268.25;4992469;28;20038;-67
2023/09/21 02:55:27;;;;;;;0.82;0.30;;;;;;;17.48;100.00;100264.22;4990385;28;20492;-67
2023/09/21 02:57:56;;;;;;;1.33;0.43;;;;;;;17.48;100.00;100263.44;4993733;28;20038;-67
2023/09/21 03:02:52;;;;;;;1.10;0.30;;;;;;;17.50;100.00;100254.28;4986084;28;20125;-67
2023/09/21 03:05:18;;;;;;;1.55;0.35;;;;;;;17.49;100.00;100247.41;4991276;28;20026;-67
2023/09/21 03:07:44;;;;;;;2.35;0.30;;;;;;;17.50;100.00;100246.38;4991643;28;20572;-67
2023/09/21 03:10:11;;;;;;;2.25;0.38;;;;;;;17.49;100.00;100242.13;4990371;28;20026;-66
2023/09/21 03:12:40;;;;;;;2.88;0.32;;;;;;;17.48;100.00;100230.00;4990493;28;20046;-67
2023/09/21 03:15:08;;;;;;;5.72;0.50;;;;;;;17.48;100.00;100235.25;4990858;28;20037;-67
2023/09/21 03:17:38;;;;;;;0.90;0.40;;;;;;;17.48;100.00;100240.53;4991327;28;20030;-66
2023/09/21 03:20:25;;;;;;;2.70;0.47;;;;;;;17.47;100.00;100233.63;4991296;28;20045;-66
2023/09/21 03:22:53;;;;;;;2.38;0.35;;;;;;;17.46;100.00;100231.19;4989492;28;20046;-67
2023/09/21 03:25:19;;;;;;;1.25;0.40;;;;;;;17.43;100.00;100236.84;4990813;28;20042;-66
2023/09/21 03:27:45;;;;;;;1.40;0.40;;;;;;;17.42;100.00;100236.03;4990376;28;20442;-67
2023/09/21 03:30:11;;;;;;;0.80;0.40;;;;;;;17.46;100.00;100233.84;4991028;28;20034;-67
2023/09/21 03:32:40;;;;;;;1.20;0.40;;;;;;;17.49;100.00;100236.84;4990885;28;20713;-67
2023/09/21 03:35:06;;;;;;;2.60;0.40;;;;;;;17.50;100.00;100238.47;4991172;28;20054;-66
2023/09/21 03:37:32;;;;;;;1.95;0.52;;;;;;;17.47;100.00;100233.63;4990735;28;20080;-67
2023/09/21 03:39:58;;;;;;;1.83;0.38;;;;;;;17.39;100.00;100225.88;4991072;28;20570;-66
2023/09/21 03:42:24;;;;;;;0.98;0.40;;;;;;;17.36;100.00;100226.28;4990411;28;20030;-67
2023/09/21 03:44:50;;;;;;;3.58;0.50;;;;;;;17.31;100.00;100222.59;4991268;28;20034;-67
2023/09/21 03:47:17;;;;;;;1.23;0.40;;;;;;;17.28;100.00;100218.53;4990420;28;20097;-67
2023/09/21 03:49:44;;;;;;;4.00;0.50;;;;;;;17.28;100.00;100218.53;4984422;28;20034;-67
2023/09/21 03:52:15;;;;;;;2.33;0.47;;;;;;;17.31;100.00;100218.16;4991086;28;20097;-67
2023/09/21 03:54:42;;;;;;;2.33;0.40;;;;;;;17.30;100.00;100219.16;4990159;28;20053;-68
2023/09/21 03:57:11;;;;;;;1.70;0.38;;;;;;;17.29;100.00;100212.25;4991348;28;20038;-67
2023/09/21 03:59:37;;;;;;;1.58;0.57;;;;;;;17.30;100.00;100213.88;4990965;28;20487;-68
2023/09/21 04:02:03;;;;;;;1.40;0.30;;;;;;;17.29;100.00;100219.34;4991026;28;20133;-68
2023/09/21 04:04:30;;;;;;;1.85;0.40;;;;;;;17.27;100.00;100219.53;4990182;28;20105;-68
2023/09/21 04:06:56;;;;;;;1.75;0.40;;;;;;;17.25;100.00;100219.72;4991072;28;20023;-68
2023/09/21 04:09:22;;;;;;;2.67;0.50;;;;;;;17.27;100.00;100222.16;4982952;28;20043;-67
2023/09/21 04:11:47;;;;;;;1.25;0.50;;;;;;;17.21;100.00;100212.41;4990272;28;20038;-68
2023/09/21 04:14:13;;;;;;;1.55;0.35;;;;;;;17.22;100.00;100214.03;4990959;28;20084;-68
2023/09/21 04:16:38;;;;;;;3.28;0.30;;;;;;;17.19;100.00;100219.69;4991381;28;20407;-67
2023/09/21 04:19:05;;;;;;;1.50;0.35;;;;;;;17.17;100.00;100211.16;4990837;28;20097;-68
2023/09/21 04:21:32;;;;;;;1.67;0.30;;;;;;;17.12;100.00;100214.38;4988976;28;20057;-69
2023/09/21 04:23:57;;;;;;;1.20;0.40;;;;;;;17.11;100.00;100219.84;5000468;28;20037;-67
2023/09/21 04:26:23;;;;;;;2.20;0.40;;;;;;;17.07;100.00;100213.31;4993305;28;20380;-68
2023/09/21 04:28:49;;;;;;;1.40;0.40;;;;;;;17.06;100.00;100219.59;4993184;28;20038;-66
2023/09/21 04:31:15;;;;;;;0.85;0.40;;;;;;;17.04;100.00;100219.78;4997287;28;20034;-66
2023/09/21 04:33:41;;;;;;;1.00;0.40;;;;;;;17.02;100.00;100223.63;4994770;28;20035;-68
2023/09/21 04:36:07;;;;;;;2.70;0.35;;;;;;;17.01;100.00;100222.03;4995541;28;20033;-67
2023/09/21 04:38:32;;;;;;;3.92;0.73;;;;;;;17.00;100.00;100215.94;4991086;28;20030;-68
2023/09/21 04:40:58;;;;;;;1.58;0.52;;;;;;;17.02;100.00;100213.09;4993865;28;20030;-67
2023/09/21 04:43:28;;;;;;;1.77;0.45;;;;;;;17.03;100.00;100217.34;4993822;28;20547;-67
2023/09/21 04:45:54;;;;;;;2.25;0.55;;;;;;;17.02;100.00;100202.56;4993369;28;20480;-67
2023/09/21 04:48:20;;;;;;;1.70;0.47;;;;;;;16.92;100.00;100195.84;4990949;28;20120;-68
2023/09/21 04:50:48;;;;;;;1.60;0.60;;;;;;;16.90;100.00;100191.78;4995586;28;20026;-68
2023/09/21 04:53:15;;;;;;;1.10;0.50;;;;;;;16.85;100.00;100191.53;5003547;28;20042;-68
2023/09/21 04:55:41;;;;;;;1.00;0.47;;;;;;;16.82;100.00;100179.56;4993278;28;20035;-69
2023/09/21 04:58:07;;;;;;;1.80;0.52;;;;;;;16.82;100.00;100176.13;4993544;28;20042;-68
2023/09/21 05:00:33;;;;;;;2.78;0.40;;;;;;;16.83;100.00;100181.19;4994654;28;20027;-68
2023/09/21 05:02:58;;;;;;;1.17;0.50;;;;;;;16.85;100.00;100175.75;4993841;28;20034;-68
2023/09/21 05:05:26;;;;;;;1.77;0.50;;;;;;;16.85;100.00;100175.75;4994042;28;20034;-68
2023/09/21 05:07:52;;;;;;;1.95;0.75;;;;;;;16.85;100.00;100171.31;4994417;28;20038;-69
2023/09/21 05:10:18;;;;;;;2.35;0.65;;;;;;;16.82;100.00;100171.69;4989448;28;20038;-68
2023/09/21 05:12:43;;;;;;;4.35;0.50;;;;;;;16.79;100.00;100177.31;4993697;28;20037;-68
2023/09/21 05:15:11;;;;;;;1.70;0.40;;;;;;;16.79;100.00;100182.59;4994002;28;20034;-68
2023/09/21 05:17:36;;;;;;;2.85;0.63;;;;;;;16.81;100.00;100169.25;4991017;28;20034;-68
2023/09/21 05:20:05;;;;;;;5.03;0.50;;;;;;;16.79;100.00;100168.63;4998105;28;20037;-67
2023/09/21 05:22:32;;;;;;;4.53;0.75;;;;;;;16.81;100.00;100167.44;4991960;28;20046;-67
2023/09/21 05:25:00;;;;;;;6.35;0.60;;;;;;;16.79;100.00;100166.00;4996726;28;20057;-67
2023/09/21 05:27:29;;;;;;;2.28;0.65;;;;;;;16.81;100.00;100172.69;4995216;28;20046;-67
2023/09/21 05:29:55;;;;;;;2.70;0.60;;;;;;;16.82;100.00;100165.59;4991808;28;20046;-67
2023/09/21 05:32:20;;;;;;;0.90;0.50;;;;;;;16.84;100.00;100166.22;4992814;28;20030;-66
2023/09/21 05:34:47;;;;;;;1.70;0.50;;;;;;;16.85;100.00;100170.50;4992452;28;20046;-67
2023/09/21 05:37:14;;;;;;;2.35;0.50;;;;;;;16.88;100.00;100178.81;4992891;28;20026;-67
2023/09/21 05:39:40;;;;;;;1.48;0.60;;;;;;;16.91;100.00;100175.81;4994303;28;20038;-67
2023/09/21 05:42:05;;;;;;;4.13;0.85;;;;;;;16.98;100.00;100185.56;4993182;28;20038;-67
2023/09/21 05:44:31;;;;;;;1.55;0.40;;;;;;;16.99;100.00;100185.38;4992784;28;20037;-68
2023/09/21 05:46:56;;;;;;;3.28;0.60;;;;;;;16.99;100.00;100190.63;4993027;28;20030;-68
2023/09/21 05:49:22;;;;;;;1.95;0.60;;;;;;;17.01;100.00;100188.63;4991876;28;20023;-68
2023/09/21 05:51:56;;;;;;;1.33;0.50;;;;;;;17.04;100.00;100195.28;4989282;28;20038;-68
2023/09/21 05:54:23;;;;;;;2.13;0.43;;;;;;;17.04;100.00;100185.56;4992354;28;20508;-68
2023/09/21 05:56:55;;;;;;;1.77;0.55;;;;;;;17.03;100.00;100188.41;4993212;28;20058;-70
2023/09/21 05:59:24;;;;;;;2.72;0.47;;;;;;;17.08;100.00;100191.25;4993102;28;20023;-69
2023/09/21 06:01:50;;;;;;;1.70;0.47;;;;;;;17.19;100.00;100182.84;4993362;28;20034;-70
2023/09/21 06:04:21;;;;;;;1.98;0.60;;;;;;;17.22;100.00;100185.06;4992610;28;20044;-70
2023/09/21 06:06:46;;;;;;;4.68;1.38;;;;;;;17.27;100.00;100190.56;4987805;28;20506;-69
2023/09/21 06:09:18;;;;;;;3.45;0.90;;;;;;;17.35;100.00;100189.59;4986571;28;20035;-69
2023/09/21 06:11:48;;;;;;;1.92;0.80;;;;;;;17.46;100.00;100196.97;4992243;28;20105;-71
2023/09/21 06:14:14;;;;;;;2.33;0.50;;;;;;;17.45;100.00;100188.25;4991521;28;20404;-70
2023/09/21 06:16:41;;;;;;;1.45;0.30;;;;;;;17.46;100.00;100189.06;4991254;28;20030;-71
2023/09/21 06:19:08;;;;;;;1.25;0.50;;;;;;;17.46;100.00;100189.06;4991704;28;20541;-70
2023/09/21 06:21:35;;;;;;;3.55;0.55;;;;;;;17.47;100.00;100191.50;4992617;28;20108;-70
2023/09/21 06:24:03;;;;;;;1.00;0.43;;;;;;;17.54;100.00;100179.13;4997310;28;20042;-71
2023/09/21 06:26:29;;;;;;;0.90;0.43;;;;;;;17.64;100.00;100177.97;4997602;28;20025;-70
2023/09/21 06:28:54;;;;;;;1.02;0.30;;;;;;;17.62;100.00;100187.88;4992374;28;20439;-71
2023/09/21 06:31:21;;;;;;;2.08;0.60;;;;;;;17.58;100.00;100190.91;4996449;28;20041;-70
2023/09/21 06:33:47;;;;;;;1.42;0.43;;;;;;;17.56;100.00;100186.84;4991983;28;20113;-71
2023/09/21 06:36:20;;;;;;;1.88;0.52;;;;;;;17.53;100.00;100188.06;4989588;28;20412;-71
2023/09/21 06:38:50;;;;;;;6.00;0.40;;;;;;;17.54;100.00;100191.50;4985028;28;20128;-71
2023/09/21 06:41:16;;;;;;;2.33;0.77;;;;;;;17.55;100.00;100196.56;4993032;28;20415;-71
2023/09/21 06:43:44;;;;;;;3.25;0.40;;;;;;;17.54;100.00;100205.47;4989251;28;20030;-71
2023/09/21 06:46:11;;;;;;;1.20;0.50;;;;;;;17.58;100.00;100204.09;4992264;28;20058;-71
2023/09/21 06:48:37;;;;;;;0.75;0.20;;;;;;;17.63;100.00;100202.69;4990967;28;20061;-72
2023/09/21 06:51:07;;;;;;;0.73;0.40;;;;;;;17.65;100.00;100203.31;4991854;28;20433;-72
2023/09/21 06:53:34;;;;;;;1.48;0.30;;;;;;;17.66;100.00;100204.97;4991038;28;20026;-72
2023/09/21 06:56:00;;;;;;;2.97;0.70;;;;;;;17.66;100.00;100195.22;4991744;28;20030;-71
2023/09/21 06:58:25;;;;;;;2.92;0.32;;;;;;;17.64;100.00;100202.50;4991720;28;20034;-72
2023/09/21 07:00:51;;;;;;;2.13;0.30;;;;;;;17.67;100.00;100196.84;4991329;28;20045;-71
2023/09/21 07:03:18;;;;;;;1.85;0.88;;;;;;;17.67;100.00;100196.03;4991586;28;20455;-71
2023/09/21 07:05:48;;;;;;;0.95;0.30;;;;;;;17.70;100.00;100203.56;4990232;28;20022;-71
2023/09/21 07:08:14;;;;;;;1.70;0.40;;;;;;;17.71;100.00;100198.09;4988270;28;20428;-71
2023/09/21 07:10:40;;;;;;;2.25;0.30;;;;;;;17.72;100.00;100205.00;4990932;28;20026;-71
2023/09/21 07:13:06;;;;;;;2.38;0.30;;;;;;;17.75;100.00;100199.31;4991822;28;20026;-71
2023/09/21 07:15:33;;;;;;;1.08;0.55;;;;;;;17.82;100.00;100194.91;4991286;28;20416;-71
2023/09/21 07:17:58;;;;;;;5.45;0.45;;;;;;;17.92;100.00;100194.53;4991326;28;20030;-71
2023/09/21 07:20:26;;;;;;;2.85;0.47;;;;;;;17.96;100.00;100193.09;4991352;28;20034;-70
2023/09/21 07:22:52;;;;;;;3.03;0.30;;;;;;;17.98;100.00;100198.97;4991266;28;20054;-70
2023/09/21 07:25:17;;;;;;;3.30;0.57;;;;;;;18.08;100.00;100209.13;4990974;28;20107;-69
2023/09/21 07:27:44;;;;;;;4.43;0.52;;;;;;;18.11;100.00;100214.00;4991298;28;20433;-70
2023/09/21 07:30:11;;;;;;;2.13;0.40;;;;;;;18.23;100.00;100207.16;4991432;28;20022;-70
2023/09/21 07:32:37;;;;;;;2.65;0.40;;;;;;;18.41;100.00;100215.31;4991168;28;20038;-70
2023/09/21 07:35:04;;;;;;;2.20;0.30;;;;;;;18.39;100.00;100211.25;4991095;28;20038;-70
2023/09/21 07:37:30;;;;;;;1.38;0.50;;;;;;;18.44;100.00;100211.41;4990335;28;20484;-70
2023/09/21 07:39:57;;;;;;;2.35;0.40;;;;;;;18.43;100.00;100210.59;4990907;28;20038;-70
2023/09/21 07:42:22;;;;;;;2.42;0.30;;;;;;;18.54;100.00;100209.19;4990631;28;20037;-70
2023/09/21 07:44:48;;;;;;;3.38;0.43;;;;;;;18.58;100.00;100213.06;4991334;28;20030;-70
2023/09/21 07:47:14;;;;;;;1.73;0.43;;;;;;;18.60;100.00;100200.50;4991123;28;20035;-69
2023/09/21 07:49:39;;;;;;;2.13;0.40;;;;;;;18.49;100.00;100195.81;4990132;28;20033;-70
2023/09/21 07:52:07;;;;;;;1.42;0.43;;;;;;;18.42;100.00;100195.00;4991082;28;20038;-70
2023/09/21 07:54:33;;;;;;;3.25;0.65;;;;;;;18.38;100.00;100194.59;4990633;28;20060;-70
2023/09/21 07:56:59;;;;;;;1.20;0.50;;;;;;;18.38;100.00;100199.88;4988947;28;20074;-70
2023/09/21 07:59:25;;;;;;;2.78;0.40;;;;;;;18.42;100.00;100200.28;4992335;28;20085;-69
2023/09/21 08:01:53;;;;;;;1.88;0.43;;;;;;;18.40;100.00;100200.50;4991179;28;20026;-70
2023/09/21 08:04:21;;;;;;;5.88;0.50;;;;;;;18.41;100.00;100202.13;4989920;28;20407;-69
2023/09/21 08:06:48;;;;;;;1.65;0.50;;;;;;;18.42;100.00;100200.28;4989153;28;20061;-69
2023/09/21 08:09:14;;;;;;;3.30;0.68;;;;;;;18.41;100.00;100204.75;4990548;28;20391;-69
2023/09/21 08:11:40;;;;;;;10.15;0.40;;;;;;;18.42;100.00;100200.28;4994544;28;20105;-69
2023/09/21 08:14:06;;;;;;;2.47;0.40;;;;;;;18.38;100.00;100204.34;4992776;28;20041;-69
2023/09/21 08:16:32;;;;;;;6.13;0.52;;;;;;;18.38;100.00;100207.78;4989433;28;20369;-69
2023/09/21 08:19:01;;;;;;;4.45;0.40;;;;;;;18.41;100.00;100204.75;4989792;28;20517;-69
2023/09/21 08:21:27;;;;;;;3.33;0.50;;;;;;;18.50;100.00;100207.97;4989661;28;20089;-69
2023/09/21 08:23:53;;;;;;;1.05;0.40;;;;;;;18.49;100.00;100212.44;4991019;28;20038;-69
2023/09/21 08:26:19;;;;;;;2.20;0.40;;;;;;;18.50;100.00;100221.16;4994095;28;20069;-68
2023/09/21 08:28:45;;;;;;;1.52;0.45;;;;;;;18.45;100.00;100218.31;4990762;28;20062;-69
2023/09/21 08:31:11;;;;;;;2.05;0.50;;;;;;;18.42;100.00;100226.66;4989568;28;20539;-68
2023/09/21 08:33:37;;;;;;;1.10;0.40;;;;;;;18.37;100.00;100223.81;4987847;28;20042;-69
2023/09/21 08:36:03;;;;;;;1.92;0.47;;;;;;;18.30;100.00;100218.53;4990071;28;20031;-70
2023/09/21 08:38:28;;;;;;;5.28;0.60;;;;;;;18.30;100.00;100212.44;4989767;28;20124;-68
2023/09/21 08:40:55;;;;;;;3.13;0.40;;;;;;;18.25;100.00;100223.59;4990575;28;20026;-67
2023/09/21 08:43:24;;;;;;;2.85;0.57;;;;;;;18.26;100.00;100227.03;4989437;28;20065;-67
2023/09/21 08:45:51;;;;;;;1.38;0.40;;;;;;;18.39;100.00;100237.63;4990228;28;20061;-67
2023/09/21 08:48:23;;;;;;;3.13;0.40;;;;;;;18.42;100.00;100231.94;4994275;28;20037;-65
2023/09/21 08:50:52;;;;;;;1.00;0.40;;;;;;;18.47;100.00;100234.75;4989737;28;20373;-65
2023/09/21 08:53:20;;;;;;;2.78;0.45;;;;;;;18.41;100.00;100230.31;4989218;28;20040;-68
2023/09/21 08:55:51;;;;;;;1.42;0.43;;;;;;;18.31;100.00;100225.44;4989142;28;20384;-65
2023/09/21 08:58:24;;;;;;;1.00;0.60;;;;;;;18.31;100.00;100220.16;4991332;28;20080;-65
2023/09/21 09:00:57;;;;;;;0.85;0.45;;;;;;;18.12;100.00;100216.44;4989059;28;20476;-65
2023/09/21 09:03:26;;;;;;;4.65;0.52;;;;;;;18.03;100.00;100201.00;4988980;28;20030;-65
2023/09/21 09:05:55;;;;;;;1.08;0.45;;;;;;;18.01;100.00;100197.75;4994602;28;20037;-66
2023/09/21 09:08:21;;;;;;;0.88;0.30;;;;;;;18.01;100.00;100195.94;4986453;28;20384;-66
2023/09/21 09:10:46;;;;;;;3.42;0.60;;;;;;;18.04;100.00;100186.81;4993634;28;20062;-66
2023/09/21 09:13:12;;;;;;;3.30;0.77;;;;;;;18.07;100.00;100178.50;4992522;28;20118;-66
2023/09/21 09:15:41;;;;;;;4.28;0.65;;;;;;;18.03;100.00;100172.84;4991957;28;20065;-66
2023/09/21 09:18:07;;;;;;;1.85;0.60;;;;;;;18.04;100.00;100171.00;4986740;28;20100;-66
2023/09/21 09:20:36;;;;;;;1.63;0.43;;;;;;;18.03;100.00;100164.13;4991096;28;20061;-65
2023/09/21 09:23:08;;;;;;;0.90;0.32;;;;;;;18.02;100.00;100157.22;4989094;28;20060;-66
2023/09/21 09:25:35;;;;;;;1.77;0.47;;;;;;;18.02;100.00;100163.28;4992542;28;20034;-66
2023/09/21 09:28:01;;;;;;;2.05;0.40;;;;;;;18.02;100.00;100165.94;4989002;28;20034;-66
2023/09/21 09:30:27;;;;;;;2.55;0.60;;;;;;;18.12;100.00;100152.38;4993055;28;20030;-65
2023/09/21 09:32:55;;;;;;;2.80;0.60;;;;;;;18.11;100.00;100153.38;4987500;28;20042;-66
2023/09/21 09:35:21;;;;;;;2.03;0.38;;;;;;;18.09;100.00;100150.94;4992374;28;20038;-66
2023/09/21 09:37:47;;;;;;;1.30;0.50;;;;;;;18.10;100.00;100139.38;4992228;28;20129;-66
2023/09/21 09:40:14;;;;;;;1.40;0.40;;;;;;;18.11;100.00;100141.00;4992416;28;20026;-65
2023/09/21 09:42:40;;;;;;;1.38;0.50;;;;;;;18.13;100.00;100139.00;4993662;28;20068;-66
2023/09/21 09:45:20;;;;;;;1.70;0.50;;;;;;;18.16;100.00;100146.50;4992883;28;20112;-66
2023/09/21 09:47:55;;;;;;;1.55;0.60;;;;;;;18.21;100.00;100156.44;4993787;28;20034;-65
2023/09/21 09:50:24;;;;;;;4.47;0.50;;;;;;;18.23;100.00;100159.69;4992438;28;20079;-66
2023/09/21 09:52:55;;;;;;;1.75;0.85;;;;;;;18.21;100.00;100151.97;4996662;28;20038;-66
2023/09/21 09:55:25;;;;;;;1.95;0.57;;;;;;;18.22;100.00;100150.97;4992673;28;20026;-65
2023/09/21 09:57:54;;;;;;;0.93;0.40;;;;;;;18.23;100.00;100144.69;4994011;28;20034;-66
2023/09/21 10:00:22;;;;;;;2.42;0.73;;;;;;;18.27;100.00;100152.19;4989053;28;20045;-65
2023/09/21 10:02:49;;;;;;;2.30;0.45;;;;;;;18.22;100.00;100156.25;4992898;28;20030;-66
2023/09/21 10:05:19;;;;;;;1.20;0.40;;;;;;;18.18;100.00;100162.94;4992352;28;20049;-66
2023/09/21 10:07:46;;;;;;;1.67;0.30;;;;;;;18.16;100.00;100164.94;4992281;28;20042;-66
2023/09/21 10:10:15;;;;;;;2.25;0.47;;;;;;;18.13;100.00;100154.81;4993350;28;20069;-66
2023/09/21 10:12:43;;;;;;;2.63;0.75;;;;;;;18.13;100.00;100149.53;4992007;28;20034;-66
2023/09/21 10:15:13;;;;;;;4.05;0.60;;;;;;;18.11;100.00;100135.75;4992587;28;20037;-65
2023/09/21 10:17:38;;;;;;;1.40;0.60;;;;;;;18.12;100.00;100136.53;4993118;28;20030;-65
2023/09/21 10:20:14;;;;;;;3.35;0.50;;;;;;;18.12;100.00;100128.63;4994603;28;20034;-65
2023/09/21 10:22:43;;;;;;;4.50;0.73;;;;;;;18.13;100.00;100135.53;4989496;28;20160;-65
2023/09/21 10:25:10;;;;;;;1.88;0.50;;;;;;;18.12;100.00;100134.72;4992133;28;20038;-65
2023/09/21 10:27:38;;;;;;;2.22;0.50;;;;;;;18.16;100.00;100141.22;4991885;28;20030;-65
2023/09/21 10:30:08;;;;;;;1.90;0.68;;;;;;;18.20;100.00;100144.28;4994599;28;20065;-65
2023/09/21 10:32:47;;;;;;;1.33;0.75;;;;;;;18.21;100.00;100145.91;4991473;28;20435;-65
2023/09/21 10:35:18;;;;;;;1.75;1.02;;;;;;;18.29;100.00;100142.25;4987866;28;20083;-65
2023/09/21 10:37:44;;;;;;;2.17;0.40;;;;;;;18.32;100.00;100141.84;4990688;28;20345;-65
2023/09/21 10:40:20;;;;;;;1.50;0.60;;;;;;;18.39;100.00;100140.84;4988903;28;20052;-65
2023/09/21 10:42:45;;;;;;;1.55;0.73;;;;;;;18.45;100.00;100137.34;4978079;28;20045;-65
2023/09/21 10:45:11;;;;;;;1.40;0.77;;;;;;;18.54;100.00;100140.59;4994453;28;20092;-65
2023/09/21 10:47:36;;;;;;;1.65;0.60;;;;;;;18.54;100.00;100145.88;4993661;28;20038;-65
2023/09/21 10:50:10;;;;;;;3.78;0.50;;;;;;;18.56;100.00;100144.66;4992186;28;20034;-65
2023/09/21 10:52:41;;;;;;;1.75;0.50;;;;;;;18.60;100.00;100134.53;4993367;28;20027;-65
2023/09/21 10:55:12;;;;;;;1.50;0.68;;;;;;;18.74;100.00;100138.00;4990980;28;20034;-65
2023/09/21 10:57:39;;;;;;;1.95;0.70;;;;;;;18.79;100.00;100128.44;4992925;28;20372;-65
2023/09/21 11:00:08;;;;;;;0.98;0.50;;;;;;;18.82;100.00;100128.03;4991480;28;20030;-65
2023/09/21 11:02:35;;;;;;;5.53;0.50;;;;;;;18.99;100.00;100124.94;4996608;28;20447;-65
2023/09/21 11:05:01;;;;;;;3.72;0.30;;;;;;;19.10;100.00;100126.94;4990115;28;20030;-65
2023/09/21 11:07:26;;;;;;;1.13;0.40;;;;;;;19.17;100.00;100123.25;4997659;28;20052;-65
2023/09/21 11:09:52;;;;;;;2.55;0.50;;;;;;;19.30;100.00;100124.22;4992324;28;20036;-66
2023/09/21 11:12:17;;;;;;;2.20;1.05;;;;;;;19.44;100.00;100116.00;4990744;28;20037;-67
2023/09/21 11:14:48;;;;;;;2.10;0.88;;;;;;;19.50;100.00;100117.81;4991038;28;20038;-67
2023/09/21 11:17:18;;;;;;;2.40;0.82;;;;;;;19.48;100.00;100117.22;4991254;28;20058;-67
2023/09/21 11:19:45;;;;;;;1.42;0.50;;;;;;;19.52;100.00;100109.72;4990559;28;20038;-67
2023/09/21 11:22:13;;;;;;;8.07;0.80;;;;;;;19.52;100.00;100113.16;4990990;28;20042;-67